Flight Track Log - Related Links

Times and Time Zones

All times are in EDT time to prevent confusion due to time zone crossing. See the RPA3242 flight status page for this flight to view local times or setup timezone preferences in your user account.

Time Position Orientation Groundspeed Altitude Reporting Facility
EDT Latitude Longitude Course Direction KTS MPH feet Rate Location/Type
Sat 09:32:56 PM 39.8667 -75.2667 37° Northeast 125 144 700  Level Philadelphia TRACON
Sat 09:33:56 PM 39.8333 -75.3167 229° Southwest 194 223 2,400 2,450 Climbing Philadelphia TRACON
Sat 09:34:56 PM 39.7667 -75.3500 201° Southwest 230 265 5,600 2,750 Climbing Philadelphia TRACON
Sat 09:35:00 PM 39.8096 -74.8310 105° East  Level FlightAware Approximate
Sat 09:35:56 PM 39.7500 -75.2667 105° East 297 342 7,900  Level Philadelphia TRACON
Sat 09:36:00 PM 39.7860 -74.6973 37° Northeast  Level FlightAware Approximate
Sat 09:36:56 PM 39.7500 -75.1500 90° East 320 368 10,500  Level Philadelphia TRACON
Sat 09:37:00 PM 39.8713 -74.6121 37° Northeast  Level FlightAware Approximate
Sat 09:38:00 PM 39.9600 -74.5400 37° Northeast  Level FlightAware Approximate
Sat 09:38:54 PM 39.7764 -74.9036 82° East 354 407 12,000  Level New York Center
Sat 09:39:55 PM 39.7889 -74.7828 82° East 354 407 13,700 1,800 Climbing New York Center
Sat 09:40:54 PM 39.8408 -74.6694 59° Northeast 355 409 15,600 2,100 Climbing New York Center
Sat 09:41:55 PM 39.9267 -74.5875 36° Northeast 362 417 17,900 2,033 Climbing New York Center
Sat 09:42:55 PM 40.0256 -74.4953 36° Northeast 375 432 19,700 1,700 Climbing New York Center
Sat 09:43:55 PM 40.1056 -74.4075 40° Northeast 393 452 21,300 1,424 Climbing New York Center
Sat 09:44:53 PM 40.2000 -74.3144 37° Northeast 406 467 22,500 1,210 Climbing New York Center
Sat 09:45:54 PM 40.2989 -74.2161 37° Northeast 419 482 23,700 750 Climbing New York Center
Sat 09:46:53 PM 40.4017 -74.1150 37° Northeast 441 507 24,000 151 Climbing New York Center
Sat 09:47:53 PM 40.5044 -74.0244 34° Northeast 454 522 24,000 -50 Level New York Center
Sat 09:48:53 PM 40.6167 -73.9589 24° Northeast 443 510 23,900  Descending New York Center
Sat 09:50:39 PM 40.8228 -73.8225 27° Northeast 462 532 24,000  Climbing Boston Center
Sat 09:51:39 PM 40.9156 -73.7117 42° Northeast 454 522 23,900 -500 Descending Boston Center
Sat 09:52:39 PM 41.0228 -73.6286 30° Northeast 449 517 23,000 -1,250 Descending Boston Center
Sat 09:53:39 PM 41.1378 -73.5894 14° North 425 489 21,400 -1,500 Descending Boston Center
Sat 09:54:39 PM 41.2461 -73.6022 355° North 388 447 20,000 -1,200 Descending Boston Center
Sat 09:55:39 PM 41.3503 -73.6153 355° North 380 437 19,000 -500 Descending Boston Center
Sat 09:56:39 PM 41.4542 -73.6283 355° North 374 430 19,000  Level Boston Center
Sat 09:57:39 PM 41.5583 -73.6414 355° North 374 430 19,000 -250 Level Boston Center
Sat 09:58:39 PM 41.6644 -73.6544 355° North 369 425 18,500 -950 Descending Boston Center
Sat 09:59:39 PM 41.7558 -73.6700 353° North 369 425 17,100 -1,438 Descending Boston Center
Sat 10:00:15 PM 41.8308 -73.6800 354° North 370 426 16,200 -1,300 Descending Boston Center
Sat 10:00:39 PM 41.8664 -73.6833 356° North 369 425 15,800 -1,075 Descending Boston Center
Sat 10:01:22 PM 41.9392 -73.6933 354° North 365 420 15,000 -1,100 Descending Boston Center
Sat 10:01:39 PM 41.9558 -73.6964 352° North 369 425 14,700 -1,200 Descending Boston Center
Sat 10:02:22 PM 42.0369 -73.7064 355° North 357 411 13,800 -1,100 Descending Boston Center
Sat 10:02:39 PM 42.0556 -73.7094 353° North 369 425 13,600 -1,279 Descending Boston Center
Sat 10:03:23 PM 42.1347 -73.7194 355° North 351 404 12,500 -1,500 Descending Boston Center
Sat 10:03:39 PM 42.1617 -73.7228 355° North 358 412 12,100 -1,180 Descending Boston Center
Sat 10:04:24 PM 42.2306 -73.7356 352° North 344 396 11,300 -1,200 Descending Boston Center
Sat 10:04:39 PM 42.2450 -73.7331 North 341 392 10,900 -1,900 Descending Boston Center
Sat 10:05:24 PM 42.3219 -73.7486 351° North 309 356 9,400 -1,900 Descending Boston Center
Sat 10:05:39 PM 42.3386 -73.7489 359° North 312 359 9,000 -1,760 Descending Boston Center
Sat 10:06:39 PM 42.4136 -73.7675 350° North 300 345 7,200 -1,963 Descending Boston Center
Sat 10:07:26 PM 42.4819 -73.7858 349° North 284 327 5,500 -2,131 Descending Boston Center
Sat 10:08:26 PM 42.5486 -73.7983 352° North 226 260 3,400 -1,339 Descending Boston Center
Sat 10:09:27 PM 42.6069 -73.8025 357° North 211 243 2,800 -590 Descending Boston Center

Login

Don't have an account? Register now (free) for customized features, flight alerts, and more!